Time;durP1;ratioP1;P1;durP2;ratioP2;P2;SDS_P1;SDS_P2;PMS_P1;PMS_P2;Temp;Humidity;BMP_temperature;BMP_pressure;BME280_temperature;BME280_humidity;BME280_pressure;Samples;Min_cycle;Max_cycle;Signal;HPM_P1;HPM_P2
2024/04/21 00:02:15;;;;;;;10.30;9.57;;;;;;;;;;5300289;26;20004;-94
2024/04/21 00:04:42;;;;;;;12.00;10.90;;;;;;;;;;5315857;27;20009;-92
2024/04/21 00:07:08;;;;;;;7.80;7.18;;;;;;;;;;5300114;26;20400;-91
2024/04/21 00:09:34;;;;;;;10.57;9.77;;;;;;;;;;5286037;27;20002;-93
2024/04/21 00:12:00;;;;;;;7.93;7.32;;;;;;;;;;5285950;27;20008;-95
2024/04/21 00:14:26;;;;;;;11.38;10.50;;;;;;;;;;5318485;26;20020;-95
2024/04/21 00:16:52;;;;;;;9.57;8.93;;;;;;;;;;5320073;26;20074;-95
2024/04/21 00:19:18;;;;;;;10.07;9.38;;;;;;;;;;5304951;27;20016;-95
2024/04/21 00:21:44;;;;;;;10.68;9.73;;;;;;;;;;5280010;27;19998;-95
2024/04/21 00:24:10;;;;;;;12.05;10.93;;;;;;;;;;5280492;27;20003;-96
2024/04/21 00:26:37;;;;;;;13.05;12.05;;;;;;;;;;5287077;27;20439;-94
2024/04/21 00:29:04;;;;;;;11.55;10.70;;;;;;;;;;5314123;27;20083;-95
2024/04/21 00:31:30;;;;;;;9.00;8.23;;;;;;;;;;5314131;27;19998;-95
2024/04/21 00:33:56;;;;;;;10.65;9.65;;;;;;;;;;5314269;27;20435;-94
2024/04/21 00:36:22;;;;;;;7.43;6.72;;;;;;;;;;5314443;27;20009;-95
2024/04/21 00:38:51;;;;;;;9.50;7.35;;;;;;;;;;5314437;27;20009;-95
2024/04/21 00:41:17;;;;;;;5.15;4.65;;;;;;;;;;5290630;27;20002;-94
2024/04/21 00:43:44;;;;;;;6.20;5.63;;;;;;;;;;5288144;26;19998;-95
2024/04/21 00:46:10;;;;;;;8.02;7.20;;;;;;;;;;5308626;26;20088;-94
2024/04/21 00:48:37;;;;;;;7.55;6.90;;;;;;;;;;5278098;27;19990;-94
2024/04/21 00:51:04;;;;;;;12.15;11.02;;;;;;;;;;5279915;27;19994;-94
2024/04/21 00:53:31;;;;;;;9.93;8.15;;;;;;;;;;5267677;27;20495;-93
2024/04/21 00:55:58;;;;;;;9.50;7.75;;;;;;;;;;5279678;27;19998;-94
2024/04/21 00:58:24;;;;;;;8.45;7.55;;;;;;;;;;5300912;27;20002;-94
2024/04/21 01:00:51;;;;;;;7.75;6.95;;;;;;;;;;5313733;27;20418;-94
2024/04/21 01:03:18;;;;;;;8.70;7.88;;;;;;;;;;5280992;27;19998;-95
2024/04/21 01:05:44;;;;;;;5.95;5.25;;;;;;;;;;5270262;27;20502;-93
2024/04/21 01:08:12;;;;;;;9.30;8.48;;;;;;;;;;5279758;27;20077;-95
2024/04/21 01:10:38;;;;;;;12.57;11.45;;;;;;;;;;5268808;27;19998;-93
2024/04/21 01:13:14;;;;;;;11.57;10.48;;;;;;;;;;5279559;27;19990;-94
2024/04/21 01:15:40;;;;;;;12.25;10.00;;;;;;;;;;5269269;27;19998;-94
2024/04/21 01:18:06;;;;;;;12.20;10.90;;;;;;;;;;5291991;27;20013;-96
2024/04/21 01:20:34;;;;;;;6.70;6.10;;;;;;;;;;5316861;26;20463;-95
2024/04/21 01:23:00;;;;;;;9.75;8.80;;;;;;;;;;5318874;26;20074;-95
2024/04/21 01:25:27;;;;;;;8.00;7.30;;;;;;;;;;5319143;26;20428;-94
2024/04/21 01:27:57;;;;;;;9.27;8.45;;;;;;;;;;5319142;26;20008;-94
2024/04/21 01:30:23;;;;;;;9.55;8.38;;;;;;;;;;5319108;26;20070;-94
2024/04/21 01:32:49;;;;;;;8.40;7.38;;;;;;;;;;5319051;26;20529;-95
2024/04/21 01:35:15;;;;;;;6.35;5.35;;;;;;;;;;5308166;27;20005;-95
2024/04/21 01:37:41;;;;;;;11.73;10.00;;;;;;;;;;5284726;27;20008;-94
2024/04/21 01:40:08;;;;;;;8.15;6.47;;;;;;;;;;5292065;26;20016;-94
2024/04/21 01:42:34;;;;;;;6.82;6.22;;;;;;;;;;5318766;26;20009;-95
2024/04/21 01:45:00;;;;;;;10.70;8.32;;;;;;;;;;5318692;26;20001;-96
2024/04/21 01:47:27;;;;;;;6.55;5.82;;;;;;;;;;5293746;27;20346;-95
2024/04/21 01:49:53;;;;;;;10.20;8.75;;;;;;;;;;5315081;26;20015;-95
2024/04/21 01:52:20;;;;;;;10.32;9.27;;;;;;;;;;5318734;26;20426;-94
2024/04/21 01:54:49;;;;;;;8.63;7.75;;;;;;;;;;5318671;26;19997;-93
2024/04/21 01:57:15;;;;;;;9.10;8.05;;;;;;;;;;5318807;26;19997;-95
2024/04/21 01:59:41;;;;;;;9.68;8.68;;;;;;;;;;5317792;26;20009;-96
2024/04/21 02:02:07;;;;;;;8.70;7.80;;;;;;;;;;5315584;26;19997;-94
2024/04/21 02:04:34;;;;;;;8.95;8.05;;;;;;;;;;5284529;27;20005;-94
2024/04/21 02:07:00;;;;;;;9.65;8.63;;;;;;;;;;5284139;27;20044;-94
2024/04/21 02:09:26;;;;;;;10.90;9.15;;;;;;;;;;5284610;27;20016;-96
2024/04/21 02:11:52;;;;;;;7.00;5.57;;;;;;;;;;5284527;27;20031;-95
2024/04/21 02:14:18;;;;;;;9.82;8.57;;;;;;;;;;5284543;27;20002;-95
2024/04/21 02:16:44;;;;;;;14.05;11.88;;;;;;;;;;5284641;27;20447;-95
2024/04/21 02:19:11;;;;;;;10.13;9.13;;;;;;;;;;5285043;27;19998;-94
2024/04/21 02:21:40;;;;;;;8.52;6.22;;;;;;;;;;5289439;26;20019;-95
2024/04/21 02:24:06;;;;;;;9.95;8.40;;;;;;;;;;5321349;26;20000;-93
2024/04/21 02:26:32;;;;;;;10.68;9.05;;;;;;;;;;5326400;26;20008;-94
2024/04/21 02:28:58;;;;;;;13.25;10.80;;;;;;;;;;5333730;26;20007;-93
2024/04/21 02:31:25;;;;;;;13.00;11.07;;;;;;;;;;5318256;26;20033;-95
2024/04/21 02:33:52;;;;;;;9.13;7.40;;;;;;;;;;5318006;26;20011;-94
2024/04/21 02:36:18;;;;;;;10.88;9.27;;;;;;;;;;5318086;26;20000;-95
2024/04/21 02:38:44;;;;;;;10.88;9.65;;;;;;;;;;5318124;26;19997;-95
2024/04/21 02:41:11;;;;;;;10.88;9.55;;;;;;;;;;5317895;26;20001;-95
2024/04/21 02:43:37;;;;;;;10.52;9.25;;;;;;;;;;5317694;26;19997;-95
2024/04/21 02:46:04;;;;;;;9.27;7.47;;;;;;;;;;5317844;26;20009;-94
2024/04/21 02:48:32;;;;;;;8.73;7.40;;;;;;;;;;5317797;26;20011;-94
2024/04/21 02:50:58;;;;;;;10.32;9.30;;;;;;;;;;5318024;26;20016;-93
2024/04/21 02:53:28;;;;;;;10.77;9.68;;;;;;;;;;5317586;26;20000;-95
2024/04/21 02:55:54;;;;;;;9.43;8.27;;;;;;;;;;5288165;27;20012;-93
2024/04/21 02:58:23;;;;;;;10.68;8.98;;;;;;;;;;5283556;27;20525;-94
2024/04/21 03:00:49;;;;;;;11.25;9.73;;;;;;;;;;5284225;27;20324;-92
2024/04/21 03:03:15;;;;;;;12.13;10.93;;;;;;;;;;5285095;27;20001;-94
2024/04/21 03:05:42;;;;;;;10.32;8.75;;;;;;;;;;5285730;27;20013;-94
2024/04/21 03:08:08;;;;;;;10.88;9.82;;;;;;;;;;5285246;27;20002;-94
2024/04/21 03:10:34;;;;;;;12.35;10.20;;;;;;;;;;5283622;27;19997;-94
2024/04/21 03:13:01;;;;;;;11.50;10.35;;;;;;;;;;5286188;27;19998;-93
2024/04/21 03:15:27;;;;;;;13.27;11.93;;;;;;;;;;5286897;27;20005;-94
2024/04/21 03:17:53;;;;;;;9.75;7.78;;;;;;;;;;5287337;27;20009;-94
2024/04/21 03:20:21;;;;;;;15.15;11.90;;;;;;;;;;5302544;26;20076;-93
2024/04/21 03:22:47;;;;;;;12.60;10.90;;;;;;;;;;5321970;26;20008;-95
2024/04/21 03:25:16;;;;;;;10.93;9.07;;;;;;;;;;5320868;26;20001;-94
2024/04/21 03:27:42;;;;;;;10.43;9.32;;;;;;;;;;5320358;26;20005;-95
2024/04/21 03:30:08;;;;;;;11.98;9.30;;;;;;;;;;5321072;26;20007;-94
2024/04/21 03:32:34;;;;;;;12.23;10.98;;;;;;;;;;5320684;26;20001;-94
2024/04/21 03:35:04;;;;;;;12.68;11.25;;;;;;;;;;5320682;26;20004;-95
2024/04/21 03:37:31;;;;;;;12.20;10.85;;;;;;;;;;5306728;27;20002;-94
2024/04/21 03:39:58;;;;;;;12.43;10.27;;;;;;;;;;5286408;27;20021;-92
2024/04/21 03:42:25;;;;;;;13.13;11.57;;;;;;;;;;5354872;26;19996;-93
2024/04/21 03:44:51;;;;;;;14.57;10.63;;;;;;;;;;5355374;26;20000;-95
2024/04/21 03:47:17;;;;;;;13.88;12.43;;;;;;;;;;5355054;26;20436;-94
2024/04/21 03:49:43;;;;;;;14.68;13.05;;;;;;;;;;5354937;26;20000;-94
2024/04/21 03:52:09;;;;;;;13.30;12.00;;;;;;;;;;5355387;26;20073;-94
2024/04/21 03:54:35;;;;;;;11.73;9.68;;;;;;;;;;5355495;26;20000;-95
2024/04/21 03:57:05;;;;;;;15.13;13.73;;;;;;;;;;5352986;26;20095;-93
2024/04/21 03:59:34;;;;;;;15.80;14.25;;;;;;;;;;5320673;26;19997;-94
2024/04/21 04:02:04;;;;;;;15.07;13.48;;;;;;;;;;5304880;27;20006;-93
2024/04/21 04:04:30;;;;;;;12.63;11.35;;;;;;;;;;5294014;26;20013;-94
2024/04/21 04:06:56;;;;;;;14.77;13.20;;;;;;;;;;5366867;21;20024;-93
2024/04/21 04:09:23;;;;;;;13.40;12.07;;;;;;;;;;5338324;26;20005;-93
2024/04/21 04:11:50;;;;;;;14.48;13.07;;;;;;;;;;5320091;26;20498;-94
2024/04/21 04:14:16;;;;;;;15.98;14.48;;;;;;;;;;5320247;26;20000;-94
2024/04/21 04:16:42;;;;;;;14.38;12.88;;;;;;;;;;5313011;27;20010;-93
2024/04/21 04:19:11;;;;;;;14.43;13.02;;;;;;;;;;5285351;27;19993;-94
2024/04/21 04:21:37;;;;;;;14.27;12.88;;;;;;;;;;5290635;26;20004;-94
2024/04/21 04:24:04;;;;;;;13.23;11.93;;;;;;;;;;5318964;26;20005;-94
2024/04/21 04:26:30;;;;;;;12.68;11.43;;;;;;;;;;5319760;26;20008;-94
2024/04/21 04:28:56;;;;;;;13.60;12.43;;;;;;;;;;5319554;26;19997;-93
2024/04/21 04:31:25;;;;;;;17.48;15.65;;;;;;;;;;5291236;26;20005;-95
2024/04/21 04:33:51;;;;;;;14.68;12.60;;;;;;;;;;5319537;26;19996;-96
2024/04/21 04:36:18;;;;;;;13.35;12.15;;;;;;;;;;5319510;26;20438;-94
2024/04/21 04:38:44;;;;;;;15.48;13.98;;;;;;;;;;5316954;26;20001;-94
2024/04/21 04:41:10;;;;;;;13.18;11.98;;;;;;;;;;5285365;27;20002;-93
2024/04/21 04:43:36;;;;;;;16.75;15.15;;;;;;;;;;5285206;27;20328;-94
2024/04/21 04:46:03;;;;;;;15.30;13.82;;;;;;;;;;5285189;27;19998;-94
2024/04/21 04:48:29;;;;;;;16.15;14.77;;;;;;;;;;5285849;27;19998;-94
2024/04/21 04:50:55;;;;;;;14.65;12.82;;;;;;;;;;5285423;27;20014;-94
2024/04/21 04:53:21;;;;;;;16.25;14.77;;;;;;;;;;5285569;27;19998;-94
2024/04/21 04:55:48;;;;;;;17.45;15.90;;;;;;;;;;5285312;27;20049;-93
2024/04/21 04:58:15;;;;;;;18.17;16.65;;;;;;;;;;5304820;26;20004;-95
2024/04/21 05:00:41;;;;;;;16.45;15.13;;;;;;;;;;5319429;26;20008;-94
2024/04/21 05:03:10;;;;;;;17.95;16.45;;;;;;;;;;5319178;26;20025;-94
2024/04/21 05:05:36;;;;;;;17.90;16.30;;;;;;;;;;5319568;26;20013;-94
2024/04/21 05:08:02;;;;;;;20.55;18.67;;;;;;;;;;5313879;27;20008;-93
2024/04/21 05:10:29;;;;;;;23.10;21.48;;;;;;;;;;5313866;27;20385;-93
2024/04/21 05:12:55;;;;;;;25.15;23.17;;;;;;;;;;5314265;27;20002;-91
2024/04/21 05:15:21;;;;;;;29.63;27.33;;;;;;;;;;5297163;27;20010;-92
2024/04/21 05:17:47;;;;;;;35.38;33.03;;;;;;;;;;5271089;27;20014;-92
2024/04/21 05:20:14;;;;;;;30.48;28.35;;;;;;;;;;5279889;27;20002;-92
2024/04/21 05:22:40;;;;;;;32.20;29.77;;;;;;;;;;5269800;27;19998;-93
2024/04/21 05:25:06;;;;;;;44.35;41.47;;;;;;;;;;5279598;27;20077;-92
2024/04/21 05:27:35;;;;;;;46.78;43.67;;;;;;;;;;5267551;27;20015;-92
2024/04/21 05:30:01;;;;;;;50.50;47.13;;;;;;;;;;5279298;27;20006;-96
2024/04/21 05:32:29;;;;;;;43.20;40.42;;;;;;;;;;5266533;27;20006;-93
2024/04/21 05:34:58;;;;;;;38.72;36.17;;;;;;;;;;5298276;27;20001;-94
2024/04/21 05:37:24;;;;;;;45.50;42.33;;;;;;;;;;5313226;27;20041;-93
2024/04/21 05:39:51;;;;;;;43.50;40.60;;;;;;;;;;5295095;27;20356;-92
2024/04/21 05:42:17;;;;;;;32.30;30.20;;;;;;;;;;5279613;27;20013;-93
2024/04/21 05:44:44;;;;;;;42.72;39.65;;;;;;;;;;5269903;27;19998;-93
2024/04/21 05:47:10;;;;;;;38.47;35.95;;;;;;;;;;5298920;26;19994;-93
2024/04/21 05:49:37;;;;;;;45.58;42.50;;;;;;;;;;5300563;26;20042;-94
2024/04/21 05:52:11;;;;;;;48.42;45.15;;;;;;;;;;5282690;27;20010;-93
2024/04/21 05:54:37;;;;;;;46.45;43.45;;;;;;;;;;5267784;27;20006;-92
2024/04/21 05:57:03;;;;;;;33.78;31.63;;;;;;;;;;5278857;27;20014;-90
2024/04/21 05:59:29;;;;;;;39.78;37.17;;;;;;;;;;5266468;27;20009;-92
2024/04/21 06:01:56;;;;;;;40.55;37.83;;;;;;;;;;5279225;27;19994;-89
2024/04/21 06:04:22;;;;;;;51.83;48.70;;;;;;;;;;5285080;27;20001;-91
2024/04/21 06:06:54;;;;;;;31.48;29.33;;;;;;;;;;5300747;27;19999;-91
2024/04/21 06:09:23;;;;;;;47.92;45.03;;;;;;;;;;5310793;27;20001;-92
2024/04/21 06:12:00;;;;;;;;;;;;;;;;;;;;;
2024/04/21 06:14:32;;;;;;;56.20;52.75;;;;;;;;;;5300650;27;20016;-92
2024/04/21 06:17:01;;;;;;;48.70;45.70;;;;;;;;;;5312464;27;20013;-91
2024/04/21 06:19:27;;;;;;;40.53;37.92;;;;;;;;;;5312043;27;20005;-94
2024/04/21 06:21:54;;;;;;;38.35;35.88;;;;;;;;;;5311973;27;20089;-92
2024/04/21 06:24:20;;;;;;;35.42;33.00;;;;;;;;;;5306614;27;19998;-91
2024/04/21 06:26:46;;;;;;;30.23;28.33;;;;;;;;;;5278212;27;19998;-91
2024/04/21 06:29:19;;;;;;;28.05;26.15;;;;;;;;;;5313147;27;20013;-94
2024/04/21 06:34:51;;;;;;;22.70;21.00;;;;;;;;;;5315730;27;20072;-93
2024/04/21 06:37:23;;;;;;;22.67;20.88;;;;;;;;;;5315148;27;20018;-92
2024/04/21 06:40:05;;;;;;;18.33;16.92;;;;;;;;;;5263471;27;20002;-94
2024/04/21 06:42:31;;;;;;;22.48;20.95;;;;;;;;;;5279243;27;20008;-93
2024/04/21 06:45:04;;;;;;;21.10;19.58;;;;;;;;;;5279230;27;20014;-96
2024/04/21 06:50:47;;;;;;;19.63;18.00;;;;;;;;;;5248933;27;20404;-96
2024/04/21 06:53:13;;;;;;;17.77;16.52;;;;;;;;;;5221380;27;19999;-96
2024/04/21 06:55:48;;;;;;;17.42;16.05;;;;;;;;;;5221348;27;20077;-95
2024/04/21 06:58:18;;;;;;;17.83;16.48;;;;;;;;;;5218867;27;20015;-91
2024/04/21 07:00:45;;;;;;;21.60;20.17;;;;;;;;;;5218760;27;20015;-94
2024/04/21 07:03:11;;;;;;;24.88;23.15;;;;;;;;;;5218190;27;20499;-93
2024/04/21 07:05:37;;;;;;;18.73;17.35;;;;;;;;;;5227394;27;20010;-96
2024/04/21 07:08:18;;;;;;;22.80;21.23;;;;;;;;;;5251084;27;20419;-92
2024/04/21 07:10:44;;;;;;;21.98;20.45;;;;;;;;;;5251923;27;20459;-93
2024/04/21 07:13:11;;;;;;;22.55;20.95;;;;;;;;;;5251122;27;20010;-91
2024/04/21 07:15:46;;;;;;;15.50;14.40;;;;;;;;;;5271699;27;20010;-93
2024/04/21 07:18:12;;;;;;;23.00;21.45;;;;;;;;;;5280603;27;20002;-92
2024/04/21 07:20:39;;;;;;;15.85;14.75;;;;;;;;;;5281928;27;19999;-93
2024/04/21 07:23:07;;;;;;;20.92;19.52;;;;;;;;;;5285786;26;20002;-92
2024/04/21 07:25:34;;;;;;;19.40;17.85;;;;;;;;;;5283126;27;20030;-93
2024/04/21 07:28:03;;;;;;;17.52;16.00;;;;;;;;;;5289753;26;19998;-93
2024/04/21 07:30:29;;;;;;;20.00;18.60;;;;;;;;;;5355628;22;19998;-93
2024/04/21 07:32:55;;;;;;;16.08;14.70;;;;;;;;;;5303174;26;20001;-94
2024/04/21 07:35:24;;;;;;;20.27;18.85;;;;;;;;;;5294695;26;19994;-94
2024/04/21 07:40:32;;;;;;;18.30;17.00;;;;;;;;;;5454247;21;20015;-91
2024/04/21 07:42:58;;;;;;;16.42;15.35;;;;;;;;;;5359662;26;20000;-92
2024/04/21 07:45:30;;;;;;;24.45;22.77;;;;;;;;;;5356891;26;20011;-94
2024/04/21 07:48:05;;;;;;;20.38;18.88;;;;;;;;;;5357552;26;20077;-91
2024/04/21 07:50:32;;;;;;;16.73;15.57;;;;;;;;;;5357365;26;20015;-93
2024/04/21 07:53:03;;;;;;;18.50;17.23;;;;;;;;;;5359014;26;20030;-93
2024/04/21 07:55:29;;;;;;;20.00;18.70;;;;;;;;;;5346124;26;20015;-91
2024/04/21 07:58:13;;;;;;;29.48;27.52;;;;;;;;;;5321102;26;20070;-91
2024/04/21 08:00:45;;;;;;;21.67;20.35;;;;;;;;;;5347533;26;20036;-95
2024/04/21 08:03:25;;;;;;;;;;;;;;;;;;;;;
2024/04/21 08:05:55;;;;;;;20.38;18.90;;;;;;;;;;5351705;26;20001;-93
2024/04/21 08:08:24;;;;;;;22.10;20.58;;;;;;;;;;5335057;26;20048;-94
2024/04/21 08:10:57;;;;;;;17.98;16.65;;;;;;;;;;5346769;26;20000;-94
2024/04/21 08:13:26;;;;;;;20.20;18.95;;;;;;;;;;5354638;26;19997;-94
2024/04/21 08:22:28;;;;;;;;;;;;;;;;;;;;;
2024/04/21 08:24:54;;;;;;;42.30;39.65;;;;;;;;;;5313039;27;19998;-93
2024/04/21 08:27:36;;;;;;;53.45;50.03;;;;;;;;;;5284199;27;19994;-93
2024/04/21 08:30:08;;;;;;;63.55;59.85;;;;;;;;;;5275033;27;20007;-94
2024/04/21 08:32:34;;;;;;;41.92;39.22;;;;;;;;;;5253627;26;20006;-93
2024/04/21 08:35:00;;;;;;;33.97;31.73;;;;;;;;;;5320658;26;19993;-95
2024/04/21 08:40:30;;;;;;;62.80;59.08;;;;;;;;;;5349908;26;20004;-93
2024/04/21 08:43:07;;;;;;;65.13;61.28;;;;;;;;;;5319566;26;20012;-94
2024/04/21 08:45:39;;;;;;;60.58;56.85;;;;;;;;;;5319125;26;20005;-95
2024/04/21 08:48:31;;;;;;;;;;;;;;;;;;;;;
2024/04/21 08:50:58;;;;;;;52.85;49.65;;;;;;;;;;5349675;26;20012;-94
2024/04/21 08:53:28;;;;;;;43.13;40.47;;;;;;;;;;5328897;26;20004;-96
2024/04/21 08:56:05;;;;;;;36.83;34.63;;;;;;;;;;5352877;26;20008;-94
2024/04/21 08:58:31;;;;;;;24.95;23.45;;;;;;;;;;5343981;26;20014;-93
2024/04/21 09:00:58;;;;;;;19.63;18.30;;;;;;;;;;5349800;26;20023;-94
2024/04/21 09:03:28;;;;;;;26.83;24.92;;;;;;;;;;5354584;26;20016;-96
2024/04/21 09:05:58;;;;;;;26.38;24.58;;;;;;;;;;5354460;26;20011;-94
2024/04/21 09:08:34;;;;;;;34.15;31.98;;;;;;;;;;5354139;26;20011;-95
2024/04/21 09:11:00;;;;;;;44.40;41.78;;;;;;;;;;5354081;26;20008;-94
2024/04/21 09:13:26;;;;;;;60.08;56.67;;;;;;;;;;5360060;26;20004;-93
2024/04/21 09:15:53;;;;;;;64.38;60.75;;;;;;;;;;5400759;21;20004;-93
2024/04/21 09:18:25;;;;;;;56.20;53.00;;;;;;;;;;5314018;27;19993;-94
2024/04/21 09:21:25;;;;;;;73.45;69.00;;;;;;;;;;5313228;27;20009;-95
2024/04/21 09:24:09;;;;;;;45.60;42.85;;;;;;;;;;5313323;27;20008;-93
2024/04/21 09:26:35;;;;;;;68.32;64.38;;;;;;;;;;5313469;27;20045;-94
2024/04/21 09:29:04;;;;;;;51.17;48.17;;;;;;;;;;5289316;27;20006;-93
2024/04/21 09:31:30;;;;;;;71.68;67.65;;;;;;;;;;5267014;27;20003;-94
2024/04/21 09:34:03;;;;;;;54.72;51.38;;;;;;;;;;5279146;27;20061;-90
2024/04/21 09:36:51;;;;;;;51.17;48.25;;;;;;;;;;5267092;27;20010;-94
2024/04/21 09:39:43;;;;;;;40.45;38.03;;;;;;;;;;5278643;27;19991;-94
2024/04/21 09:42:09;;;;;;;45.80;42.70;;;;;;;;;;5275565;27;20448;-94
2024/04/21 09:44:41;;;;;;;48.22;45.40;;;;;;;;;;5267937;27;20002;-91
2024/04/21 09:50:08;;;;;;;81.93;77.15;;;;;;;;;;5291202;27;19998;-93
2024/04/21 09:52:38;;;;;;;75.60;71.38;;;;;;;;;;5267424;27;20002;-94
2024/04/21 09:55:11;;;;;;;56.25;53.03;;;;;;;;;;5279486;27;20093;-95
2024/04/21 09:58:30;;;;;;;69.93;65.80;;;;;;;;;;5269816;27;19998;-95
2024/04/21 10:04:08;;;;;;;55.63;52.10;;;;;;;;;;5337342;21;20016;-94
2024/04/21 10:06:38;;;;;;;65.55;61.75;;;;;;;;;;5319972;26;19997;-94
2024/04/21 10:09:14;;;;;;;69.53;65.53;;;;;;;;;;5318567;26;20011;-93
2024/04/21 10:14:36;;;;;;;65.60;61.78;;;;;;;;;;5349690;26;20008;-93
2024/04/21 10:17:17;;;;;;;69.38;65.20;;;;;;;;;;5321348;26;20504;-95
2024/04/21 10:19:50;;;;;;;53.35;50.22;;;;;;;;;;5319722;26;20003;-96
2024/04/21 10:28:43;;;;;;;54.42;50.97;;;;;;;;;;5443049;21;20012;-94
2024/04/21 10:31:12;;;;;;;59.97;56.35;;;;;;;;;;5321991;26;20004;-95
2024/04/21 10:39:41;;;;;;;65.80;61.80;;;;;;;;;;5410042;21;20012;-92
2024/04/21 10:45:39;;;;;;;70.50;66.18;;;;;;;;;;5531919;21;20001;-95
2024/04/21 10:48:15;;;;;;;50.67;47.60;;;;;;;;;;5324299;26;20001;-95
2024/04/21 10:50:41;;;;;;;69.80;65.18;;;;;;;;;;5316310;26;19997;-94
2024/04/21 10:53:11;;;;;;;69.00;64.78;;;;;;;;;;5314231;27;20009;-93
2024/04/21 10:55:37;;;;;;;67.78;63.72;;;;;;;;;;5313529;26;19998;-94
2024/04/21 10:58:04;;;;;;;67.10;62.85;;;;;;;;;;5336836;26;20056;-93
2024/04/21 11:00:30;;;;;;;61.38;57.45;;;;;;;;;;5323709;26;20449;-93
2024/04/21 11:02:57;;;;;;;81.65;76.80;;;;;;;;;;5321479;26;19997;-93
2024/04/21 11:05:28;;;;;;;76.45;71.78;;;;;;;;;;5318032;26;20008;-95
2024/04/21 11:08:01;;;;;;;49.35;46.10;;;;;;;;;;5317771;26;20008;-92
2024/04/21 11:10:30;;;;;;;60.55;56.53;;;;;;;;;;5317638;26;19997;-92
2024/04/21 11:13:22;;;;;;;68.38;64.10;;;;;;;;;;5290575;27;20346;-93
2024/04/21 11:15:51;;;;;;;58.95;55.05;;;;;;;;;;5297462;26;20015;-91
2024/04/21 11:18:17;;;;;;;57.17;53.67;;;;;;;;;;5317831;26;20016;-95
2024/04/21 11:20:46;;;;;;;61.25;57.45;;;;;;;;;;5318551;26;20075;-92
2024/04/21 11:23:22;;;;;;;71.65;67.35;;;;;;;;;;5317526;26;19996;-91
2024/04/21 11:25:52;;;;;;;58.00;54.45;;;;;;;;;;5318162;26;20083;-90
2024/04/21 11:28:19;;;;;;;52.90;49.38;;;;;;;;;;5289975;27;20009;-92
2024/04/21 11:30:45;;;;;;;78.97;74.00;;;;;;;;;;5284704;27;20071;-92
2024/04/21 11:33:14;;;;;;;73.63;69.03;;;;;;;;;;5286347;27;20072;-93
2024/04/21 11:38:35;;;;;;;61.83;58.10;;;;;;;;;;5244080;27;20009;-92
2024/04/21 11:41:04;;;;;;;60.90;57.10;;;;;;;;;;5330254;26;20001;-92
2024/04/21 11:43:39;;;;;;;65.50;61.33;;;;;;;;;;5321453;27;20013;-92
2024/04/21 11:46:11;;;;;;;62.55;58.70;;;;;;;;;;5315344;27;20002;-92
2024/04/21 11:48:57;;;;;;;74.63;70.10;;;;;;;;;;5315353;27;19998;-93
2024/04/21 11:51:29;;;;;;;71.03;66.50;;;;;;;;;;5313990;27;20004;-94
2024/04/21 11:54:01;;;;;;;58.30;54.78;;;;;;;;;;5284889;27;20356;-92
2024/04/21 11:56:30;;;;;;;55.22;51.70;;;;;;;;;;5275860;27;19998;-93
2024/04/21 11:58:59;;;;;;;55.40;52.00;;;;;;;;;;5269338;27;20001;-90
2024/04/21 12:01:31;;;;;;;64.43;60.00;;;;;;;;;;5258756;27;19998;-94
2024/04/21 12:04:00;;;;;;;56.17;52.60;;;;;;;;;;5270435;27;20006;-92
2024/04/21 12:06:27;;;;;;;52.40;49.10;;;;;;;;;;5251043;27;20010;-92
2024/04/21 12:08:53;;;;;;;58.88;55.17;;;;;;;;;;5250786;27;20009;-93
2024/04/21 12:11:22;;;;;;;45.88;42.83;;;;;;;;;;5252252;27;20014;-93
2024/04/21 12:13:51;;;;;;;58.67;54.85;;;;;;;;;;5253374;27;20080;-94
2024/04/21 12:16:20;;;;;;;65.72;61.60;;;;;;;;;;5253634;27;20001;-91
2024/04/21 12:18:46;;;;;;;69.03;64.85;;;;;;;;;;5257113;27;20042;-92
2024/04/21 12:24:07;;;;;;;56.35;52.75;;;;;;;;;;4991469;21;15419713;-91
2024/04/21 12:29:20;;;;;;;70.22;66.13;;;;;;;;;;5741033;21;19992;-90
2024/04/21 12:31:46;;;;;;;55.65;52.20;;;;;;;;;;5736240;21;20073;-91
2024/04/21 12:34:18;;;;;;;63.85;60.03;;;;;;;;;;5320141;26;19997;-93
2024/04/21 12:36:44;;;;;;;56.17;52.70;;;;;;;;;;5319900;26;19997;-92
2024/04/21 12:39:13;;;;;;;60.03;56.33;;;;;;;;;;5295245;27;20005;-93
2024/04/21 12:41:39;;;;;;;66.70;62.67;;;;;;;;;;5285668;27;20002;-92
2024/04/21 12:44:08;;;;;;;59.92;56.30;;;;;;;;;;5286696;27;19997;-92
2024/04/21 12:46:34;;;;;;;50.20;47.20;;;;;;;;;;5285737;27;20316;-93
2024/04/21 12:49:10;;;;;;;51.78;48.70;;;;;;;;;;5286957;27;20006;-92
2024/04/21 12:51:36;;;;;;;57.03;53.67;;;;;;;;;;5286514;27;20060;-92
2024/04/21 12:54:05;;;;;;;57.78;54.05;;;;;;;;;;5287180;27;20086;-92
2024/04/21 12:59:08;;;;;;;62.17;58.13;;;;;;;;;;6027054;21;19922;-91
2024/04/21 13:01:43;;;;;;;53.88;50.47;;;;;;;;;;5325968;26;20377;-92
2024/04/21 13:07:25;;;;;;;63.28;59.50;;;;;;;;;;5356191;26;20011;-92
2024/04/21 13:09:52;;;;;;;63.78;59.92;;;;;;;;;;5358556;26;20001;-92
2024/04/21 13:12:21;;;;;;;57.88;54.33;;;;;;;;;;5315787;26;20365;-93
2024/04/21 13:14:54;;;;;;;58.85;55.30;;;;;;;;;;5286266;27;20509;-91
2024/04/21 13:17:23;;;;;;;55.97;52.33;;;;;;;;;;5285443;27;20001;-92
2024/04/21 13:19:52;;;;;;;67.32;63.33;;;;;;;;;;5286707;27;20005;-92
2024/04/21 13:27:43;;;;;;;58.38;54.72;;;;;;;;;;5351921;26;20011;-91
2024/04/21 13:30:41;;;;;;;57.38;53.97;;;;;;;;;;5322562;26;19997;-91
2024/04/21 13:33:14;;;;;;;59.50;55.90;;;;;;;;;;5288588;27;20002;-92
2024/04/21 13:41:41;;;;;;;50.28;47.17;;;;;;;;;;5350604;26;20043;-93
2024/04/21 13:50:32;;;;;;;58.15;54.58;;;;;;;;;;5286800;27;20096;-91
2024/04/21 13:53:01;;;;;;;63.38;59.67;;;;;;;;;;5305164;27;20041;-90
2024/04/21 14:04:34;;;;;;;48.83;45.72;;;;;;;;;;5181938;27;20008;-91
2024/04/21 14:07:00;;;;;;;58.67;55.13;;;;;;;;;;5248311;27;20006;-92
2024/04/21 14:10:02;;;;;;;44.22;41.53;;;;;;;;;;5276910;27;20005;-92
2024/04/21 14:15:29;;;;;;;53.28;50.05;;;;;;;;;;5471755;21;20016;-92
2024/04/21 14:17:57;;;;;;;44.10;41.35;;;;;;;;;;5293758;27;20002;-92
2024/04/21 14:20:52;;;;;;;43.97;40.95;;;;;;;;;;5325093;26;20044;-91
2024/04/21 14:23:30;;;;;;;46.97;43.85;;;;;;;;;;5307237;27;20009;-91
2024/04/21 14:25:59;;;;;;;41.30;38.72;;;;;;;;;;5296456;26;19997;-93
2024/04/21 14:28:31;;;;;;;42.45;39.75;;;;;;;;;;5319694;27;20462;-93
2024/04/21 14:39:57;;;;;;;49.40;46.25;;;;;;;;;;5334850;26;20012;-90
2024/04/21 14:45:11;;;;;;;43.33;40.75;;;;;;;;;;5493605;21;20512;-92
2024/04/21 14:47:44;;;;;;;39.17;36.78;;;;;;;;;;5319825;26;20009;-90
2024/04/21 14:50:14;;;;;;;41.03;38.60;;;;;;;;;;5313278;26;20000;-90
2024/04/21 14:52:44;;;;;;;39.78;37.17;;;;;;;;;;5301964;26;20007;-89
2024/04/21 14:55:16;;;;;;;49.65;46.53;;;;;;;;;;5299626;27;20001;-92
2024/04/21 14:58:03;;;;;;;39.15;36.60;;;;;;;;;;5337352;26;20474;-93
2024/04/21 15:00:35;;;;;;;43.30;40.63;;;;;;;;;;5306606;27;20002;-94
2024/04/21 15:03:07;;;;;;;40.97;38.38;;;;;;;;;;5313815;26;20104;-94
2024/04/21 15:14:15;;;;;;;42.53;39.88;;;;;;;;;;5331316;26;20008;-92
2024/04/21 15:19:45;;;;;;;42.55;40.03;;;;;;;;;;5323307;27;20071;-94
2024/04/21 15:22:14;;;;;;;35.60;33.45;;;;;;;;;;5277797;27;20005;-93
2024/04/21 15:24:40;;;;;;;41.60;39.10;;;;;;;;;;5294198;27;20029;-95
2024/04/21 15:30:07;;;;;;;42.50;39.83;;;;;;;;;;5332147;21;20017;-94
2024/04/21 15:32:44;;;;;;;45.22;42.40;;;;;;;;;;5287743;27;20012;-92
2024/04/21 15:35:20;;;;;;;45.15;42.45;;;;;;;;;;5295828;27;20097;-93
2024/04/21 15:41:02;;;;;;;43.35;40.75;;;;;;;;;;5323113;27;20009;-95
2024/04/21 15:43:30;;;;;;;46.80;44.10;;;;;;;;;;5348449;22;20004;-95
2024/04/21 15:45:57;;;;;;;38.55;36.25;;;;;;;;;;5291987;27;20005;-94
2024/04/21 15:48:24;;;;;;;41.92;39.35;;;;;;;;;;5291077;27;20008;-94
2024/04/21 15:50:53;;;;;;;52.03;48.80;;;;;;;;;;5292036;27;20002;-94
2024/04/21 15:53:26;;;;;;;43.15;40.55;;;;;;;;;;5292697;27;20002;-92
2024/04/21 15:56:11;;;;;;;54.13;50.90;;;;;;;;;;5295401;27;20001;-96
2024/04/21 15:58:43;;;;;;;51.42;48.33;;;;;;;;;;5254883;27;20031;-96
2024/04/21 16:01:27;;;;;;;55.10;51.80;;;;;;;;;;5223167;27;20003;-94
2024/04/21 16:03:58;;;;;;;52.25;49.13;;;;;;;;;;5176741;27;20004;-96
2024/04/21 16:07:13;;;;;;;;;;;;;;;;;;;;;
2024/04/21 16:10:11;;;;;;;52.95;49.38;;;;;;;;;;5186513;27;20008;-96
2024/04/21 16:15:34;;;;;;;55.10;51.80;;;;;;;;;;5154736;27;20004;-93
2024/04/21 16:21:20;;;;;;;54.90;51.55;;;;;;;;;;5171977;27;20010;-92
2024/04/21 16:23:59;;;;;;;50.47;47.38;;;;;;;;;;5218609;27;20036;-95
2024/04/21 16:26:25;;;;;;;54.30;51.00;;;;;;;;;;5216606;27;19999;-91
2024/04/21 16:28:59;;;;;;;55.72;52.45;;;;;;;;;;5229748;27;19997;-94
2024/04/21 16:31:57;;;;;;;54.92;51.58;;;;;;;;;;5287241;27;20009;-93
2024/04/21 16:34:26;;;;;;;51.85;48.65;;;;;;;;;;5286781;27;20075;-95
2024/04/21 16:36:55;;;;;;;55.80;52.08;;;;;;;;;;5288734;27;20009;-91
2024/04/21 16:39:21;;;;;;;56.35;53.03;;;;;;;;;;5257988;27;20468;-90
2024/04/21 16:41:50;;;;;;;57.85;54.25;;;;;;;;;;5264077;27;20005;-93
2024/04/21 16:44:16;;;;;;;58.22;54.60;;;;;;;;;;5283334;27;20009;-93